Time;durP1;ratioP1;P1;durP2;ratioP2;P2;SDS_P1;SDS_P2;PMS_P1;PMS_P2;Temp;Humidity;BMP_temperature;BMP_pressure;BME280_temperature;BME280_humidity;BME280_pressure;Samples;Min_cycle;Max_cycle;Signal;HPM_P1;HPM_P2
2022/03/29 00:00:38;;;;;;;14.93;9.90;;;6.20;48.50;;;;;;5082766;28;20430;-52
2022/03/29 00:03:04;;;;;;;19.77;10.60;;;6.20;48.70;;;;;;5082537;28;20207;-52
2022/03/29 00:05:30;;;;;;;21.53;12.03;;;6.20;48.80;;;;;;5079608;28;20436;-50
2022/03/29 00:07:56;;;;;;;20.00;11.80;;;6.10;48.80;;;;;;5081264;28;20465;-55
2022/03/29 00:10:22;;;;;;;20.60;11.80;;;6.10;48.90;;;;;;5082676;28;20436;-54
2022/03/29 00:12:50;;;;;;;21.60;11.70;;;6.10;48.90;;;;;;5083548;28;20455;-53
2022/03/29 00:15:16;;;;;;;22.47;11.53;;;6.10;49.00;;;;;;5081102;28;20433;-54
2022/03/29 00:17:42;;;;;;;20.30;9.80;;;6.00;49.00;;;;;;5079122;28;20947;-50
2022/03/29 00:20:08;;;;;;;23.30;12.10;;;6.00;49.00;;;;;;5085528;28;20204;-52
2022/03/29 00:22:34;;;;;;;17.70;10.10;;;5.90;49.10;;;;;;5076160;28;20202;-51
2022/03/29 00:25:00;;;;;;;17.03;11.07;;;5.90;49.30;;;;;;5081199;28;20502;-51
2022/03/29 00:27:26;;;;;;;20.07;11.40;;;5.90;49.40;;;;;;5083804;28;20463;-53
2022/03/29 00:29:51;;;;;;;18.77;11.70;;;5.90;49.50;;;;;;5080326;28;20193;-51
2022/03/29 00:32:17;;;;;;;18.93;10.60;;;5.80;49.60;;;;;;5088522;28;20270;-55
2022/03/29 00:34:43;;;;;;;18.60;9.87;;;5.80;49.60;;;;;;5089689;28;20725;-53
2022/03/29 00:37:09;;;;;;;19.63;10.37;;;5.80;49.60;;;;;;5084870;28;20519;-52
2022/03/29 00:39:35;;;;;;;20.03;11.23;;;5.80;49.90;;;;;;5087509;28;20712;-51
2022/03/29 00:42:01;;;;;;;16.03;10.23;;;5.70;49.90;;;;;;5090826;28;20202;-53
2022/03/29 00:44:35;;;;;;;37.13;11.00;;;5.70;50.20;;;;;;5086268;28;20277;-52
2022/03/29 00:47:02;;;;;;;22.37;10.73;;;5.70;50.10;;;;;;5084143;28;20427;-52
2022/03/29 00:49:28;;;;;;;20.90;11.20;;;5.70;50.20;;;;;;5094092;28;20549;-52
2022/03/29 00:51:58;;;;;;;18.67;10.90;;;5.70;50.20;;;;;;5084255;28;21114;-54
2022/03/29 00:54:25;;;;;;;19.37;10.50;;;5.70;50.20;;;;;;5079823;28;20463;-50
2022/03/29 00:56:51;;;;;;;25.03;11.17;;;5.80;50.00;;;;;;5081667;28;20423;-53
2022/03/29 00:59:18;;;;;;;21.50;11.10;;;5.80;50.10;;;;;;5084635;28;20520;-54
2022/03/29 01:01:44;;;;;;;18.90;10.17;;;5.70;50.50;;;;;;5083779;28;20444;-53
2022/03/29 01:04:10;;;;;;;18.63;10.33;;;5.70;50.40;;;;;;5095142;28;20431;-51
2022/03/29 01:06:38;;;;;;;17.77;10.50;;;5.70;50.30;;;;;;5080327;28;20432;-50
2022/03/29 01:09:04;;;;;;;18.23;11.27;;;5.70;50.50;;;;;;5087812;28;20648;-53
2022/03/29 01:11:31;;;;;;;21.53;11.10;;;5.60;50.40;;;;;;5083230;28;20509;-51
2022/03/29 01:13:56;;;;;;;23.77;11.10;;;5.60;50.20;;;;;;5085278;28;20177;-51
2022/03/29 01:19:13;;;;;;;17.03;10.10;;;5.50;50.80;;;;;;5085158;28;20189;-53
2022/03/29 01:21:39;;;;;;;18.47;11.27;;;5.50;50.90;;;;;;5079204;28;20444;-53
2022/03/29 01:24:08;;;;;;;18.77;11.03;;;5.50;50.90;;;;;;5086501;28;20443;-52
2022/03/29 01:26:35;;;;;;;19.17;10.17;;;5.40;50.70;;;;;;5082918;28;20416;-54
2022/03/29 01:29:01;;;;;;;16.73;10.13;;;5.40;50.80;;;;;;5082318;28;20999;-51
2022/03/29 01:31:28;;;;;;;20.57;10.47;;;5.40;50.90;;;;;;5092003;28;20451;-49
2022/03/29 01:33:56;;;;;;;22.10;11.07;;;5.40;51.00;;;;;;5092790;28;20992;-52
2022/03/29 01:36:22;;;;;;;23.10;10.93;;;5.40;51.30;;;;;;5086606;28;20526;-54
2022/03/29 01:38:47;;;;;;;26.23;11.90;;;5.30;51.50;;;;;;5083827;28;20516;-51
2022/03/29 01:41:13;;;;;;;21.60;12.30;;;5.30;51.50;;;;;;5071790;28;20194;-52
2022/03/29 01:43:39;;;;;;;19.63;10.70;;;5.30;51.30;;;;;;5106245;22;20684;-58
2022/03/29 01:46:07;;;;;;;18.57;11.20;;;5.30;51.30;;;;;;5110362;27;20177;-59
2022/03/29 01:48:33;;;;;;;24.30;11.80;;;5.30;51.30;;;;;;5109409;28;20568;-59
2022/03/29 01:50:59;;;;;;;22.97;11.83;;;5.20;51.30;;;;;;5103120;28;20523;-60
2022/03/29 01:53:27;;;;;;;18.20;11.27;;;5.20;51.40;;;;;;5087111;28;20523;-59
2022/03/29 01:55:57;;;;;;;22.03;12.10;;;5.20;51.60;;;;;;5075168;28;20228;-58
2022/03/29 01:58:27;;;;;;;22.80;12.13;;;5.10;51.60;;;;;;5089010;28;20419;-58
2022/03/29 02:00:53;;;;;;;25.37;11.93;;;5.10;51.60;;;;;;5085352;28;20830;-60
2022/03/29 02:03:19;;;;;;;16.77;10.90;;;5.10;51.60;;;;;;5082685;28;20547;-59
2022/03/29 02:05:45;;;;;;;22.83;11.50;;;5.10;51.60;;;;;;5086297;28;20991;-59
2022/03/29 02:08:11;;;;;;;21.90;11.17;;;5.10;51.80;;;;;;5082081;28;20201;-60
2022/03/29 02:10:38;;;;;;;19.30;11.27;;;5.00;51.90;;;;;;5082681;28;20266;-59
2022/03/29 02:13:04;;;;;;;18.93;10.30;;;5.00;52.00;;;;;;5079138;28;20469;-59
2022/03/29 02:15:30;;;;;;;21.13;10.60;;;5.00;52.10;;;;;;5087666;28;20423;-58
2022/03/29 02:17:56;;;;;;;19.23;10.13;;;5.00;52.30;;;;;;5082663;28;20510;-59
2022/03/29 02:20:24;;;;;;;22.70;10.90;;;5.00;52.10;;;;;;5084849;28;20261;-59
2022/03/29 02:22:49;;;;;;;19.47;10.30;;;5.00;52.10;;;;;;5077790;28;20444;-59
2022/03/29 02:25:15;;;;;;;22.83;10.37;;;5.00;52.10;;;;;;5077311;28;20431;-60
2022/03/29 02:27:43;;;;;;;20.27;11.47;;;5.00;52.20;;;;;;5090535;28;21010;-60
2022/03/29 02:30:11;;;;;;;18.00;11.00;;;5.00;52.10;;;;;;5079529;28;20434;-60
2022/03/29 02:32:37;;;;;;;20.30;11.23;;;5.00;52.10;;;;;;5085304;28;20784;-60
2022/03/29 02:35:03;;;;;;;16.80;10.23;;;5.00;52.30;;;;;;5078792;28;20523;-59
2022/03/29 02:37:29;;;;;;;19.43;10.40;;;5.00;52.30;;;;;;5085175;28;21028;-59
2022/03/29 02:39:55;;;;;;;17.20;11.10;;;4.90;52.40;;;;;;5078227;28;20524;-59
2022/03/29 02:42:21;;;;;;;17.50;10.57;;;4.90;52.50;;;;;;5076433;28;20681;-59
2022/03/29 02:44:46;;;;;;;20.57;10.47;;;4.90;52.80;;;;;;5072842;28;20419;-59
2022/03/29 02:47:12;;;;;;;21.40;10.17;;;4.90;52.80;;;;;;5095433;28;20532;-60
2022/03/29 02:49:38;;;;;;;21.00;10.90;;;4.90;53.00;;;;;;5082893;28;20230;-59
2022/03/29 02:52:04;;;;;;;16.47;9.83;;;4.90;52.90;;;;;;5071708;28;20834;-58
2022/03/29 02:54:30;;;;;;;16.03;11.10;;;4.90;53.00;;;;;;5083980;28;20181;-59
2022/03/29 02:56:56;;;;;;;18.63;10.47;;;4.90;53.00;;;;;;5086600;28;20511;-59
2022/03/29 02:59:22;;;;;;;18.30;10.33;;;4.90;52.90;;;;;;5088092;28;20506;-59
2022/03/29 03:01:47;;;;;;;21.17;10.80;;;4.80;52.80;;;;;;5087964;28;20705;-60
2022/03/29 03:04:13;;;;;;;18.60;10.20;;;4.80;52.90;;;;;;5081463;28;20198;-59
2022/03/29 03:06:40;;;;;;;24.23;10.73;;;4.80;52.90;;;;;;5080214;28;20178;-58
2022/03/29 03:09:07;;;;;;;19.67;10.63;;;4.70;52.90;;;;;;5081519;28;20671;-59
2022/03/29 03:11:32;;;;;;;19.50;10.67;;;4.70;53.10;;;;;;5073353;28;20428;-61
2022/03/29 03:13:58;;;;;;;26.23;10.10;;;4.70;53.10;;;;;;5079268;28;20481;-60
2022/03/29 03:16:24;;;;;;;20.20;10.40;;;4.70;53.10;;;;;;5080875;28;20170;-59
2022/03/29 03:18:49;;;;;;;18.87;11.20;;;4.60;53.20;;;;;;5081729;28;20292;-60
2022/03/29 03:21:15;;;;;;;23.70;12.77;;;4.60;53.30;;;;;;5075807;28;20655;-60
2022/03/29 03:23:40;;;;;;;17.93;11.77;;;4.50;53.30;;;;;;5082066;28;20190;-60
2022/03/29 03:26:06;;;;;;;24.53;12.13;;;4.50;53.40;;;;;;5084127;28;20185;-60
2022/03/29 03:28:32;;;;;;;20.97;10.90;;;4.50;53.50;;;;;;5077305;28;20198;-60
2022/03/29 03:30:58;;;;;;;24.17;11.50;;;4.40;53.70;;;;;;5085769;28;20174;-59
2022/03/29 03:33:24;;;;;;;23.83;12.10;;;4.40;53.80;;;;;;5078135;28;20214;-60
2022/03/29 03:35:50;;;;;;;21.70;11.00;;;4.40;54.00;;;;;;5069632;28;21313;-60
2022/03/29 03:38:15;;;;;;;21.37;12.00;;;4.40;53.90;;;;;;5070682;28;20257;-60
2022/03/29 03:40:41;;;;;;;22.23;11.30;;;4.40;53.90;;;;;;5081143;28;20170;-60
2022/03/29 03:43:07;;;;;;;19.30;10.90;;;4.30;53.80;;;;;;5078461;28;20660;-59
2022/03/29 03:45:33;;;;;;;22.00;10.33;;;4.30;54.00;;;;;;5075307;28;20220;-59
2022/03/29 03:47:58;;;;;;;21.40;10.90;;;4.30;54.30;;;;;;5094860;28;20924;-60
2022/03/29 03:50:24;;;;;;;29.60;11.30;;;4.30;54.60;;;;;;5082070;28;20172;-59
2022/03/29 03:52:51;;;;;;;24.80;11.50;;;4.20;54.60;;;;;;5082609;28;20197;-59
2022/03/29 03:55:18;;;;;;;19.33;10.93;;;4.20;54.70;;;;;;5083120;28;20174;-59
2022/03/29 03:57:44;;;;;;;23.00;11.33;;;4.20;54.70;;;;;;5081883;28;20436;-60
2022/03/29 04:00:11;;;;;;;23.60;12.40;;;4.20;54.80;;;;;;5080497;28;20450;-59
2022/03/29 04:02:37;;;;;;;20.83;11.43;;;4.20;54.90;;;;;;5076031;28;20979;-58
2022/03/29 04:05:03;;;;;;;20.37;12.10;;;4.20;55.00;;;;;;5072066;28;21226;-61
2022/03/29 04:07:29;;;;;;;23.20;11.77;;;4.20;55.10;;;;;;5082387;28;20434;-59
2022/03/29 04:09:55;;;;;;;19.27;11.80;;;4.30;55.30;;;;;;5083177;28;20500;-61
2022/03/29 04:12:20;;;;;;;20.60;11.23;;;4.30;55.40;;;;;;5076968;28;20189;-60
2022/03/29 04:14:46;;;;;;;19.40;11.97;;;4.30;55.40;;;;;;5077881;28;20523;-61
2022/03/29 04:17:13;;;;;;;26.97;12.07;;;4.30;55.50;;;;;;5079496;28;20185;-60
2022/03/29 04:19:39;;;;;;;22.60;13.07;;;4.30;55.70;;;;;;5079085;28;20228;-60
2022/03/29 04:22:05;;;;;;;22.00;13.20;;;4.30;55.80;;;;;;5081703;28;20428;-60
2022/03/29 04:24:30;;;;;;;21.27;12.33;;;4.30;55.90;;;;;;5080922;28;20427;-61
2022/03/29 04:26:56;;;;;;;19.43;11.77;;;4.30;55.90;;;;;;5078652;28;20983;-60
2022/03/29 04:29:22;;;;;;;27.83;12.80;;;4.30;55.80;;;;;;5079734;28;20202;-60
2022/03/29 04:31:48;;;;;;;23.37;12.10;;;4.30;56.00;;;;;;5076757;28;20639;-61
2022/03/29 04:34:14;;;;;;;24.03;13.20;;;4.30;56.00;;;;;;5079905;28;20194;-60
2022/03/29 04:36:40;;;;;;;31.43;12.80;;;4.30;56.00;;;;;;5078123;28;20422;-61
2022/03/29 04:39:06;;;;;;;24.00;13.23;;;4.30;56.10;;;;;;5081343;28;20181;-61
2022/03/29 04:41:32;;;;;;;31.33;14.40;;;4.30;56.00;;;;;;5089200;28;22587;-61
2022/03/29 04:43:58;;;;;;;24.50;13.20;;;4.30;56.00;;;;;;5081008;28;20470;-60
2022/03/29 04:46:24;;;;;;;26.07;15.33;;;4.30;56.10;;;;;;5079419;28;20575;-60
2022/03/29 04:48:52;;;;;;;26.27;14.97;;;4.30;56.20;;;;;;5080461;28;20470;-61
2022/03/29 04:51:18;;;;;;;24.70;13.80;;;4.20;56.10;;;;;;5081247;28;20194;-60
2022/03/29 04:53:44;;;;;;;33.57;12.77;;;4.20;56.00;;;;;;5087509;28;20529;-60
2022/03/29 04:56:10;;;;;;;26.67;14.53;;;4.20;56.20;;;;;;5083123;28;20432;-60
2022/03/29 04:58:35;;;;;;;24.70;13.43;;;4.20;56.20;;;;;;5080879;28;20185;-60
2022/03/29 05:01:01;;;;;;;24.73;14.67;;;4.20;56.40;;;;;;5081727;28;20178;-62
2022/03/29 05:03:27;;;;;;;32.53;15.03;;;4.10;56.50;;;;;;5084299;28;20225;-61
2022/03/29 05:05:52;;;;;;;25.33;14.80;;;4.20;56.80;;;;;;5082828;28;20177;-61
2022/03/29 05:08:18;;;;;;;29.87;15.07;;;4.10;56.80;;;;;;5079431;28;20250;-61
2022/03/29 05:10:44;;;;;;;28.33;14.20;;;4.10;57.10;;;;;;5083096;28;20180;-62
2022/03/29 05:13:09;;;;;;;25.70;14.60;;;4.10;57.20;;;;;;5090081;28;20255;-61
2022/03/29 05:15:35;;;;;;;31.37;14.93;;;4.10;57.20;;;;;;5090796;28;20302;-61
2022/03/29 05:18:02;;;;;;;32.90;14.70;;;4.10;57.10;;;;;;5086705;28;20283;-60
2022/03/29 05:20:28;;;;;;;29.73;15.67;;;4.10;57.30;;;;;;5089778;28;20893;-60
2022/03/29 05:22:57;;;;;;;28.53;15.50;;;4.10;57.60;;;;;;5080622;28;21039;-60
2022/03/29 05:25:25;;;;;;;27.73;15.03;;;4.10;57.80;;;;;;5092484;28;20990;-60
2022/03/29 05:27:52;;;;;;;26.57;13.43;;;4.10;57.60;;;;;;5080163;28;20530;-61
2022/03/29 05:30:19;;;;;;;28.73;13.90;;;4.10;57.50;;;;;;5078784;28;20515;-61
2022/03/29 05:32:44;;;;;;;26.33;13.97;;;4.10;57.70;;;;;;5075369;28;20447;-61
2022/03/29 05:35:11;;;;;;;28.00;15.90;;;4.10;58.10;;;;;;5088626;28;20435;-61
2022/03/29 05:37:39;;;;;;;26.73;14.47;;;4.10;58.30;;;;;;5093367;28;20209;-61
2022/03/29 05:40:07;;;;;;;35.93;15.10;;;4.10;58.10;;;;;;5096798;28;20536;-61
2022/03/29 05:42:37;;;;;;;29.10;13.50;;;4.10;58.30;;;;;;5092522;28;20827;-62
2022/03/29 05:45:03;;;;;;;28.17;14.80;;;4.10;58.40;;;;;;5087452;28;20446;-61
2022/03/29 05:50:13;;;;;;;23.40;13.20;;;4.20;58.10;;;;;;5083230;28;20426;-61
2022/03/29 05:52:38;;;;;;;31.50;14.50;;;4.20;58.50;;;;;;5081034;28;20437;-62
2022/03/29 05:55:04;;;;;;;27.60;14.37;;;4.20;58.90;;;;;;5088858;28;20180;-61
2022/03/29 05:57:30;;;;;;;30.20;14.73;;;4.30;59.10;;;;;;5086993;28;20253;-61
2022/03/29 05:59:56;;;;;;;35.97;15.43;;;4.30;59.70;;;;;;5090748;28;20457;-61
2022/03/29 06:02:24;;;;;;;25.93;13.10;;;4.30;59.50;;;;;;5086551;28;20444;-61
2022/03/29 06:04:50;;;;;;;29.60;13.87;;;4.40;59.20;;;;;;5091987;28;20169;-61
2022/03/29 06:07:16;;;;;;;26.70;14.10;;;4.40;59.20;;;;;;5088023;28;20443;-60
2022/03/29 06:09:42;;;;;;;37.43;13.27;;;4.40;59.00;;;;;;5090211;28;20426;-61
2022/03/29 06:12:08;;;;;;;25.43;13.93;;;4.50;59.80;;;;;;5088650;28;20428;-60
2022/03/29 06:14:33;;;;;;;28.70;13.90;;;4.50;59.30;;;;;;5095649;28;20169;-61
2022/03/29 06:17:00;;;;;;;32.80;14.80;;;4.50;59.10;;;;;;5083282;28;20182;-60
2022/03/29 06:19:26;;;;;;;35.43;14.10;;;4.60;59.50;;;;;;5087019;28;20189;-60
2022/03/29 06:21:52;;;;;;;34.63;13.93;;;4.60;59.80;;;;;;5092662;28;20428;-61
2022/03/29 06:24:17;;;;;;;25.53;13.13;;;4.60;59.50;;;;;;5072049;28;20848;-60
2022/03/29 06:26:43;;;;;;;32.63;15.03;;;4.70;59.00;;;;;;5092667;28;20177;-61
2022/03/29 06:29:10;;;;;;;27.50;14.67;;;4.70;58.80;;;;;;5092078;28;20258;-61
2022/03/29 06:31:37;;;;;;;23.37;13.70;;;4.70;58.50;;;;;;5092116;28;20223;-61
2022/03/29 06:34:03;;;;;;;35.73;15.37;;;4.80;58.50;;;;;;5084829;28;20823;-62
2022/03/29 06:36:29;;;;;;;24.40;13.40;;;4.80;58.60;;;;;;5098894;28;20497;-61
2022/03/29 06:38:54;;;;;;;32.57;13.23;;;4.80;58.40;;;;;;5094432;28;20419;-60
2022/03/29 06:41:21;;;;;;;26.77;14.43;;;4.90;58.30;;;;;;5088667;28;20924;-61
2022/03/29 06:43:47;;;;;;;35.30;16.30;;;4.90;58.30;;;;;;5087530;28;20576;-60
2022/03/29 06:46:13;;;;;;;23.30;13.00;;;4.90;58.30;;;;;;5077623;28;20524;-62
2022/03/29 06:48:44;;;;;;;25.43;13.03;;;5.00;58.70;;;;;;5081364;28;20471;-61
2022/03/29 06:51:12;;;;;;;22.23;12.90;;;5.00;58.50;;;;;;5083356;28;20554;-61
2022/03/29 06:53:38;;;;;;;24.70;13.47;;;5.10;59.00;;;;;;5093899;28;20470;-60
2022/03/29 06:56:05;;;;;;;27.43;12.83;;;5.20;58.70;;;;;;5082444;28;20522;-60
2022/03/29 06:58:31;;;;;;;41.20;14.00;;;5.30;59.10;;;;;;5095240;28;20438;-61
2022/03/29 07:00:57;;;;;;;25.17;13.97;;;5.40;59.20;;;;;;5088163;28;20412;-61
2022/03/29 07:03:23;;;;;;;28.57;14.37;;;5.50;58.70;;;;;;5083377;28;20281;-61
2022/03/29 07:05:49;;;;;;;27.80;14.30;;;5.60;58.50;;;;;;5081194;28;20435;-61
2022/03/29 07:08:18;;;;;;;26.10;14.00;;;5.70;58.00;;;;;;5082362;28;20445;-61
2022/03/29 07:13:28;;;;;;;27.20;15.13;;;5.90;57.40;;;;;;5089486;28;20519;-61
2022/03/29 07:15:54;;;;;;;42.03;16.37;;;6.00;57.70;;;;;;5086574;28;20522;-61
2022/03/29 07:18:19;;;;;;;33.10;15.00;;;6.10;57.30;;;;;;5091294;28;20181;-61
2022/03/29 07:20:45;;;;;;;32.53;14.70;;;6.20;56.90;;;;;;5081999;28;20224;-62
2022/03/29 07:23:11;;;;;;;26.80;15.50;;;6.20;56.60;;;;;;5092054;28;20196;-61
2022/03/29 07:25:37;;;;;;;32.80;14.13;;;6.30;56.30;;;;;;5089534;28;22282;-61
2022/03/29 07:28:04;;;;;;;27.90;14.47;;;6.40;55.90;;;;;;5084147;28;20478;-61
2022/03/29 07:30:33;;;;;;;28.73;16.20;;;6.40;56.10;;;;;;5078826;28;20239;-61
2022/03/29 07:32:59;;;;;;;31.43;14.90;;;6.50;56.10;;;;;;5084371;28;20453;-61
2022/03/29 07:35:27;;;;;;;41.43;15.50;;;6.50;56.10;;;;;;5074152;28;20431;-61
2022/03/29 07:37:53;;;;;;;38.80;15.50;;;6.60;56.20;;;;;;5083695;28;20935;-61
2022/03/29 07:40:22;;;;;;;32.40;16.47;;;6.60;56.20;;;;;;5079779;28;20458;-61
2022/03/29 07:42:49;;;;;;;48.33;15.30;;;6.70;56.20;;;;;;5079311;28;20220;-61
2022/03/29 07:45:16;;;;;;;28.10;14.57;;;6.80;56.10;;;;;;5079808;28;20425;-62
2022/03/29 07:47:42;;;;;;;29.10;16.03;;;6.90;56.30;;;;;;5096419;28;20459;-61
2022/03/29 07:50:11;;;;;;;41.27;15.00;;;6.90;56.40;;;;;;5077347;28;20428;-61
2022/03/29 07:52:39;;;;;;;29.90;16.50;;;7.00;56.00;;;;;;5075501;28;20538;-63
2022/03/29 07:55:06;;;;;;;34.43;16.70;;;7.10;55.40;;;;;;5076729;28;20463;-61
2022/03/29 07:57:32;;;;;;;35.07;16.90;;;7.10;55.60;;;;;;5077979;28;20434;-61
2022/03/29 07:59:58;;;;;;;24.43;14.10;;;7.20;55.30;;;;;;5079657;28;20423;-62
2022/03/29 08:02:25;;;;;;;25.23;13.90;;;7.20;55.30;;;;;;5070987;28;20447;-61
2022/03/29 08:04:51;;;;;;;30.20;13.90;;;7.30;55.20;;;;;;5081634;28;20184;-61
2022/03/29 08:07:17;;;;;;;32.50;14.13;;;7.40;56.00;;;;;;5089221;28;20916;-61
2022/03/29 08:09:42;;;;;;;34.63;13.70;;;7.50;56.00;;;;;;5084031;28;20472;-61
2022/03/29 08:12:08;;;;;;;23.80;14.07;;;7.60;55.90;;;;;;5088986;28;20783;-61
2022/03/29 08:14:34;;;;;;;33.67;14.00;;;7.70;55.70;;;;;;5080242;28;20189;-61
2022/03/29 08:17:00;;;;;;;25.93;14.20;;;7.70;55.50;;;;;;5080484;28;20519;-62
2022/03/29 08:19:26;;;;;;;20.60;12.20;;;7.80;55.10;;;;;;5105756;27;20526;-62
2022/03/29 08:21:52;;;;;;;23.37;11.60;;;7.90;55.00;;;;;;5083987;28;20439;-62
2022/03/29 08:24:23;;;;;;;23.47;12.47;;;8.00;54.70;;;;;;5079073;28;20204;-62
2022/03/29 08:26:51;;;;;;;20.20;11.97;;;8.10;54.70;;;;;;5082524;28;20518;-61
2022/03/29 08:29:18;;;;;;;22.40;12.43;;;8.20;54.80;;;;;;5082648;28;20448;-61
2022/03/29 08:31:45;;;;;;;27.20;11.63;;;8.30;53.80;;;;;;5087411;28;20435;-60
2022/03/29 08:34:11;;;;;;;23.63;12.37;;;8.50;54.20;;;;;;5085374;28;20452;-60
2022/03/29 08:36:39;;;;;;;21.70;12.57;;;8.50;54.40;;;;;;5079299;28;20430;-60
2022/03/29 08:39:06;;;;;;;23.73;11.80;;;8.70;54.30;;;;;;5087726;28;20431;-61
2022/03/29 08:41:38;;;;;;;16.77;11.53;;;8.70;53.40;;;;;;5090280;28;20432;-60
2022/03/29 08:44:06;;;;;;;24.47;12.90;;;8.80;53.30;;;;;;5083126;28;20462;-61
2022/03/29 08:46:38;;;;;;;26.63;12.47;;;9.00;53.00;;;;;;5092733;28;20519;-62
2022/03/29 08:49:08;;;;;;;29.80;12.17;;;9.10;52.80;;;;;;5086083;28;20491;-61
2022/03/29 08:51:36;;;;;;;22.37;11.60;;;9.20;53.00;;;;;;5078967;28;20428;-62
2022/03/29 08:54:02;;;;;;;19.93;10.87;;;9.40;52.70;;;;;;5083725;28;20655;-61
2022/03/29 08:56:28;;;;;;;18.43;10.60;;;9.50;52.80;;;;;;5076051;28;20956;-61
2022/03/29 08:58:54;;;;;;;22.93;12.93;;;9.60;52.50;;;;;;5084575;28;20189;-60
2022/03/29 09:01:20;;;;;;;29.73;12.77;;;9.80;52.20;;;;;;5089870;28;20189;-60
2022/03/29 09:04:03;;;;;;;28.70;12.30;;;10.00;51.10;;;;;;5077146;28;20455;-60
2022/03/29 09:06:29;;;;;;;30.70;12.90;;;10.20;51.00;;;;;;5083143;28;20478;-60
2022/03/29 09:08:54;;;;;;;20.97;12.93;;;10.40;51.10;;;;;;5082146;28;20501;-61
2022/03/29 09:11:21;;;;;;;33.07;14.03;;;10.60;50.50;;;;;;5081067;28;20228;-60
2022/03/29 09:14:02;;;;;;;28.90;15.37;;;10.80;50.10;;;;;;5077206;28;20198;-60
2022/03/29 09:16:30;;;;;;;40.33;15.67;;;11.10;50.20;;;;;;5075524;28;20428;-60
2022/03/29 09:18:57;;;;;;;26.43;14.53;;;11.30;49.80;;;;;;5081542;28;20428;-61
2022/03/29 09:21:24;;;;;;;32.77;13.13;;;11.60;49.30;;;;;;5075768;28;20462;-61
2022/03/29 09:24:04;;;;;;;25.37;12.67;;;11.80;47.60;;;;;;5081433;28;20548;-60
2022/03/29 09:26:30;;;;;;;25.47;11.90;;;12.20;45.10;;;;;;5086270;28;20924;-62
2022/03/29 09:28:56;;;;;;;22.37;11.23;;;12.40;41.00;;;;;;5086061;28;20463;-61
2022/03/29 09:31:25;;;;;;;19.87;11.20;;;12.60;40.40;;;;;;5079212;28;20468;-61
2022/03/29 09:33:51;;;;;;;18.83;10.80;;;12.70;39.50;;;;;;5073405;28;20448;-61
2022/03/29 09:36:20;;;;;;;17.50;11.10;;;12.90;39.30;;;;;;5081524;28;20434;-61
2022/03/29 09:38:47;;;;;;;18.27;10.10;;;13.00;38.80;;;;;;5085409;28;20438;-62
2022/03/29 09:41:26;;;;;;;17.20;11.00;;;13.10;38.10;;;;;;5084641;28;20991;-62
2022/03/29 09:44:05;;;;;;;23.53;11.20;;;13.20;36.60;;;;;;5084229;28;20463;-60
2022/03/29 09:46:51;;;;;;;21.73;11.23;;;13.20;36.50;;;;;;5080038;28;20436;-62
2022/03/29 09:49:17;;;;;;;23.40;11.53;;;13.30;36.00;;;;;;5081213;28;20600;-61
2022/03/29 09:51:43;;;;;;;21.20;11.30;;;13.50;36.30;;;;;;5081192;28;21183;-62
2022/03/29 09:54:08;;;;;;;22.70;10.57;;;13.70;36.60;;;;;;5084074;28;20216;-60
2022/03/29 09:56:34;;;;;;;17.30;10.23;;;14.00;35.60;;;;;;5086495;28;20173;-62
2022/03/29 09:59:05;;;;;;;23.70;9.70;;;14.20;33.60;;;;;;5088425;28;20186;-61
2022/03/29 10:01:31;;;;;;;15.03;9.73;;;14.40;33.40;;;;;;5090103;28;20178;-60
2022/03/29 10:04:02;;;;;;;19.00;10.23;;;14.50;32.20;;;;;;5086248;28;20448;-60
2022/03/29 10:06:30;;;;;;;16.13;9.83;;;14.60;31.80;;;;;;5080172;28;20752;-60
2022/03/29 10:11:44;;;;;;;20.93;11.30;;;14.90;31.40;;;;;;5085136;28;20891;-60
2022/03/29 10:14:14;;;;;;;14.83;9.20;;;15.10;33.10;;;;;;5086198;28;20482;-60
2022/03/29 10:16:42;;;;;;;19.57;9.80;;;15.20;32.60;;;;;;5084766;28;21001;-61
2022/03/29 10:19:10;;;;;;;17.33;9.73;;;15.40;32.50;;;;;;5081627;28;20442;-63
2022/03/29 10:21:36;;;;;;;17.73;8.73;;;15.50;32.00;;;;;;5080693;28;20446;-61
2022/03/29 10:24:02;;;;;;;17.70;9.70;;;15.60;30.90;;;;;;5086951;28;21177;-61
2022/03/29 10:26:28;;;;;;;21.90;8.60;;;15.60;30.60;;;;;;5092529;28;20527;-60
2022/03/29 10:28:54;;;;;;;16.10;9.77;;;15.60;30.20;;;;;;5083910;28;20206;-64
2022/03/29 10:31:31;;;;;;;18.63;8.70;;;15.70;29.70;;;;;;5090439;28;20431;-61
2022/03/29 10:34:16;;;;;;;17.70;9.53;;;15.70;30.60;;;;;;5086465;28;20623;-61
2022/03/29 10:37:14;;;;;;;16.43;9.40;;;15.70;30.30;;;;;;5083113;28;20904;-61
2022/03/29 10:39:54;;;;;;;23.37;9.67;;;15.80;31.20;;;;;;5082483;28;20435;-60
2022/03/29 10:42:32;;;;;;;23.23;9.10;;;15.90;30.80;;;;;;5079945;28;21009;-61
2022/03/29 10:45:24;;;;;;;15.63;8.60;;;16.00;29.70;;;;;;5082159;28;20514;-63
2022/03/29 10:48:11;;;;;;;17.43;8.73;;;16.10;29.60;;;;;;5082063;28;20510;-60
2022/03/29 10:50:54;;;;;;;22.17;8.93;;;16.10;29.70;;;;;;5078461;28;20455;-60
2022/03/29 10:53:29;;;;;;;14.93;8.70;;;16.20;30.30;;;;;;5078936;28;20508;-61
2022/03/29 10:56:15;;;;;;;14.37;9.03;;;16.30;30.60;;;;;;5076457;28;20431;-63
2022/03/29 10:59:06;;;;;;;18.90;9.57;;;16.30;30.10;;;;;;5084036;28;20450;-62
2022/03/29 11:01:33;;;;;;;16.53;8.30;;;16.30;29.90;;;;;;5080767;28;20509;-61
2022/03/29 11:04:13;;;;;;;19.83;9.90;;;16.40;30.00;;;;;;5075975;28;20948;-63
2022/03/29 11:07:04;;;;;;;22.90;10.00;;;16.50;30.30;;;;;;5076425;28;20520;-60
2022/03/29 11:09:30;;;;;;;19.73;9.00;;;16.60;30.30;;;;;;5072303;28;21005;-61
2022/03/29 11:11:56;;;;;;;12.47;8.53;;;16.70;30.00;;;;;;5073843;28;20460;-61
2022/03/29 11:14:28;;;;;;;33.93;9.50;;;16.90;30.70;;;;;;5084417;28;20270;-64
2022/03/29 11:17:09;;;;;;;18.27;9.00;;;16.90;31.30;;;;;;5094709;28;20173;-63
2022/03/29 11:19:47;;;;;;;19.50;9.53;;;16.90;30.00;;;;;;5072533;28;20973;-61
2022/03/29 11:22:21;;;;;;;17.80;9.97;;;16.90;29.80;;;;;;5078984;28;20443;-61
2022/03/29 11:24:49;;;;;;;23.03;10.67;;;16.90;29.90;;;;;;5081502;28;20537;-60
2022/03/29 11:27:41;;;;;;;27.00;11.70;;;16.90;30.10;;;;;;5079371;28;20436;-60
2022/03/29 11:30:09;;;;;;;18.80;11.40;;;16.80;29.70;;;;;;5080181;28;20440;-61
2022/03/29 11:32:35;;;;;;;26.17;12.30;;;16.80;29.70;;;;;;5081605;28;20468;-61
2022/03/29 11:35:05;;;;;;;22.60;11.20;;;16.80;30.00;;;;;;5080427;28;20527;-60
2022/03/29 11:37:32;;;;;;;17.73;10.70;;;16.70;30.00;;;;;;5088509;28;20776;-61
2022/03/29 11:40:01;;;;;;;17.53;10.13;;;16.70;30.00;;;;;;5083196;28;20915;-60
2022/03/29 11:42:44;;;;;;;24.73;11.87;;;16.70;30.20;;;;;;5081444;28;20510;-62
2022/03/29 11:45:11;;;;;;;22.90;12.00;;;16.60;30.00;;;;;;5083949;28;20487;-62
2022/03/29 11:47:38;;;;;;;23.10;12.30;;;16.60;30.40;;;;;;5079053;28;20807;-61
2022/03/29 11:50:04;;;;;;;28.53;12.47;;;16.60;30.70;;;;;;5084667;28;20438;-62
2022/03/29 11:52:38;;;;;;;21.50;11.53;;;16.60;30.90;;;;;;5080221;28;20483;-62
2022/03/29 11:55:15;;;;;;;21.03;10.23;;;16.60;31.30;;;;;;5081161;28;20439;-65
2022/03/29 11:57:41;;;;;;;30.03;12.00;;;16.70;31.70;;;;;;5078045;28;20677;-64
2022/03/29 12:00:24;;;;;;;21.80;12.23;;;16.70;31.70;;;;;;5077513;28;21844;-63
2022/03/29 12:02:51;;;;;;;30.30;11.13;;;16.80;31.70;;;;;;5093433;27;20201;-62
2022/03/29 12:05:25;;;;;;;25.93;12.13;;;16.80;31.10;;;;;;5084413;28;20430;-63
2022/03/29 12:08:03;;;;;;;28.07;10.93;;;16.70;30.70;;;;;;5085243;28;20436;-62
2022/03/29 12:10:34;;;;;;;19.83;11.63;;;16.70;30.70;;;;;;5085009;28;20530;-58
2022/03/29 12:13:01;;;;;;;26.33;12.57;;;16.70;31.10;;;;;;5085660;28;20509;-62
2022/03/29 12:15:26;;;;;;;31.00;13.40;;;16.80;31.80;;;;;;5081586;28;20424;-61
2022/03/29 12:20:46;;;;;;;23.20;13.23;;;17.00;32.00;;;;;;5080102;28;20706;-63
2022/03/29 12:23:30;;;;;;;18.70;11.63;;;17.10;31.60;;;;;;5085170;28;20519;-61
2022/03/29 12:25:56;;;;;;;24.90;12.73;;;17.30;31.90;;;;;;5092942;28;20424;-60
2022/03/29 12:28:23;;;;;;;33.83;12.10;;;17.50;31.20;;;;;;5083894;28;20482;-61
2022/03/29 12:30:49;;;;;;;23.53;12.67;;;17.60;31.20;;;;;;5079078;28;20432;-61
2022/03/29 12:33:16;;;;;;;25.80;12.03;;;17.80;31.10;;;;;;5087352;28;20462;-62
2022/03/29 12:35:42;;;;;;;20.27;11.20;;;17.90;30.50;;;;;;5094057;28;20431;-59
2022/03/29 12:38:11;;;;;;;19.30;11.50;;;17.90;30.30;;;;;;5089203;28;20538;-60
2022/03/29 12:40:37;;;;;;;22.10;11.03;;;18.00;29.80;;;;;;5092568;28;20450;-61
2022/03/29 12:43:05;;;;;;;24.53;11.77;;;17.90;29.10;;;;;;5086619;28;20556;-63
2022/03/29 12:45:32;;;;;;;27.73;12.60;;;17.90;29.80;;;;;;5090616;28;20186;-62
2022/03/29 12:48:01;;;;;;;28.20;13.40;;;18.00;29.60;;;;;;5082283;28;20459;-62
2022/03/29 12:50:28;;;;;;;24.53;10.80;;;18.00;29.90;;;;;;5084597;28;20440;-61
2022/03/29 12:53:02;;;;;;;26.80;11.50;;;18.10;30.10;;;;;;5080524;28;20504;-64